createdAt,value
2023-02-11T00:01:31.905Z,6.80
2023-02-11T00:04:00.409Z,6.80
2023-02-11T00:06:30.079Z,6.90
2023-02-11T00:08:57.826Z,6.80
2023-02-11T00:11:30.262Z,6.80
2023-02-11T00:14:04.533Z,6.90
2023-02-11T00:16:32.404Z,6.90
2023-02-11T00:19:01.352Z,6.80
2023-02-11T00:21:28.829Z,6.80
2023-02-11T00:23:58.104Z,6.90
2023-02-11T00:26:29.594Z,6.90
2023-02-11T00:28:57.172Z,6.90
2023-02-11T00:31:25.738Z,6.80
2023-02-11T00:33:53.670Z,6.90
2023-02-11T00:36:24.983Z,6.90
2023-02-11T00:38:54.089Z,6.90
2023-02-11T00:41:22.433Z,6.90
2023-02-11T00:43:50.306Z,6.90
2023-02-11T00:46:20.138Z,6.90
2023-02-11T00:48:51.703Z,6.90
2023-02-11T00:51:21.541Z,6.90
2023-02-11T00:53:48.674Z,6.90
2023-02-11T00:56:15.816Z,6.90
2023-02-11T00:58:42.879Z,6.90
2023-02-11T01:01:12.511Z,6.80
2023-02-11T01:03:40.728Z,6.90
2023-02-11T01:06:08.952Z,6.80
2023-02-11T01:08:39.238Z,6.80
2023-02-11T01:11:16.211Z,6.80
2023-02-11T01:13:45.842Z,6.80
2023-02-11T01:16:13.917Z,6.70
2023-02-11T01:18:44.221Z,6.70
2023-02-11T01:21:11.853Z,6.70
2023-02-11T01:23:39.148Z,6.60
2023-02-11T01:26:06.399Z,6.60
2023-02-11T01:28:33.919Z,6.60
2023-02-11T01:31:02.528Z,6.50
2023-02-11T01:33:30.009Z,6.50
2023-02-11T01:36:03.125Z,6.50
2023-02-11T01:38:31.094Z,6.50
2023-02-11T01:41:02.622Z,6.50
2023-02-11T01:43:41.772Z,6.50
2023-02-11T01:46:37.595Z,6.50
2023-02-11T01:49:11.701Z,6.50
2023-02-11T01:51:43.792Z,6.50
2023-02-11T01:54:33.965Z,6.50
2023-02-11T01:57:21.436Z,6.50
2023-02-11T02:00:25.235Z,6.50
2023-02-11T02:03:15.444Z,6.50
2023-02-11T02:06:00.330Z,6.50
2023-02-11T02:09:13.433Z,6.50
2023-02-11T02:11:40.731Z,6.50
2023-02-11T02:14:08.104Z,6.50
2023-02-11T02:16:37.071Z,6.50
2023-02-11T02:19:47.868Z,6.50
2023-02-11T02:22:42.524Z,6.50
2023-02-11T02:25:56.031Z,6.50
2023-02-11T02:28:54.599Z,6.50
2023-02-11T02:31:35.723Z,6.50
2023-02-11T02:34:43.730Z,6.60
2023-02-11T02:37:24.505Z,6.60
2023-02-11T02:39:51.605Z,6.60
2023-02-11T02:42:20.184Z,6.60
2023-02-11T02:44:52.556Z,6.60
2023-02-11T02:47:19.915Z,6.60
2023-02-11T02:49:47.579Z,6.70
2023-02-11T02:52:42.000Z,6.70
2023-02-11T02:55:25.684Z,6.80
2023-02-11T02:58:09.302Z,6.80
2023-02-11T03:01:12.045Z,6.90
2023-02-11T03:03:48.120Z,6.90
2023-02-11T03:06:27.396Z,6.80
2023-02-11T03:09:11.594Z,6.90
2023-02-11T03:11:39.961Z,6.90
2023-02-11T03:14:13.355Z,6.90
2023-02-11T03:16:40.933Z,6.90
2023-02-11T03:19:18.016Z,6.90
2023-02-11T03:21:47.886Z,6.90
2023-02-11T03:24:32.960Z,6.90
2023-02-11T03:27:13.031Z,6.90
2023-02-11T03:29:51.729Z,7.00
2023-02-11T03:32:36.421Z,6.90
2023-02-11T03:35:36.260Z,7.00
2023-02-11T03:38:32.384Z,7.00
2023-02-11T03:41:02.312Z,7.00
2023-02-11T03:43:49.841Z,7.00
2023-02-11T03:46:21.627Z,7.00
2023-02-11T03:48:54.607Z,7.10
2023-02-11T03:51:24.469Z,7.00
2023-02-11T03:53:55.829Z,7.00
2023-02-11T03:56:29.113Z,7.00
2023-02-11T03:58:56.428Z,7.00
2023-02-11T04:01:23.594Z,7.10
2023-02-11T04:03:50.885Z,7.10
2023-02-11T04:06:18.141Z,7.10
2023-02-11T04:08:45.141Z,7.10
2023-02-11T04:11:12.194Z,7.10
2023-02-11T04:13:39.382Z,7.10
2023-02-11T04:16:06.897Z,7.10
2023-02-11T04:18:34.137Z,7.10
2023-02-11T04:21:01.361Z,7.10
2023-02-11T04:23:28.397Z,7.10
2023-02-11T04:25:55.433Z,7.10
2023-02-11T04:28:22.675Z,7.00
2023-02-11T04:30:51.305Z,7.10
2023-02-11T04:33:18.576Z,7.00
2023-02-11T04:35:45.944Z,7.10
2023-02-11T04:38:16.278Z,7.00
2023-02-11T04:40:43.564Z,7.00
2023-02-11T04:43:10.672Z,7.00
2023-02-11T04:45:37.802Z,7.00
2023-02-11T04:48:05.135Z,7.00
2023-02-11T04:50:32.211Z,7.00
2023-02-11T04:52:59.275Z,7.00
2023-02-11T04:55:26.420Z,7.00
2023-02-11T04:57:53.458Z,7.00
2023-02-11T05:00:20.933Z,7.00
2023-02-11T05:02:48.564Z,6.90
2023-02-11T05:05:15.600Z,7.00
2023-02-11T05:07:42.669Z,7.00
2023-02-11T05:10:09.921Z,7.00
2023-02-11T05:12:37.031Z,6.90
2023-02-11T05:15:04.765Z,6.90
2023-02-11T05:17:31.756Z,6.90
2023-02-11T05:19:58.848Z,6.90
2023-02-11T05:22:25.838Z,6.90
2023-02-11T05:24:52.887Z,6.90
2023-02-11T05:27:19.996Z,7.00
2023-02-11T05:29:49.910Z,7.00
2023-02-11T05:32:17.133Z,7.00
2023-02-11T05:34:44.292Z,6.90
2023-02-11T05:37:11.461Z,6.90
2023-02-11T05:39:38.718Z,6.90
2023-02-11T05:42:06.130Z,6.90
2023-02-11T05:44:33.472Z,6.90
2023-02-11T05:47:00.920Z,6.90
2023-02-11T05:49:27.959Z,6.90
2023-02-11T05:51:55.136Z,6.90
2023-02-11T05:54:22.277Z,6.90
2023-02-11T05:56:49.474Z,6.90
2023-02-11T05:59:16.844Z,6.90
2023-02-11T06:01:44.103Z,6.90
2023-02-11T06:04:11.217Z,6.80
2023-02-11T06:06:38.594Z,6.80
2023-02-11T06:09:05.856Z,6.90
2023-02-11T06:11:33.002Z,6.80
2023-02-11T06:14:01.260Z,6.80
2023-02-11T06:16:28.785Z,6.80
2023-02-11T06:18:56.098Z,6.80
2023-02-11T06:21:26.458Z,6.80
2023-02-11T06:23:57.890Z,6.80
2023-02-11T06:26:25.269Z,6.80
2023-02-11T06:28:52.315Z,6.80
2023-02-11T06:31:20.333Z,6.80
2023-02-11T06:33:47.861Z,6.80
2023-02-11T06:36:21.216Z,6.80
2023-02-11T06:38:49.293Z,6.80
2023-02-11T06:41:20.245Z,6.80
2023-02-11T06:43:48.271Z,6.80
2023-02-11T06:46:15.856Z,6.80
2023-02-11T06:48:44.884Z,6.80
2023-02-11T06:51:14.060Z,6.80
2023-02-11T06:53:44.630Z,6.90
2023-02-11T06:56:20.254Z,6.80
2023-02-11T06:58:47.990Z,6.80
2023-02-11T07:01:16.712Z,6.80
2023-02-11T07:03:45.815Z,6.90
2023-02-11T07:06:20.087Z,6.80
2023-02-11T07:08:47.914Z,6.80
2023-02-11T07:11:19.283Z,6.90
2023-02-11T07:13:47.618Z,6.90
2023-02-11T07:16:17.095Z,6.90
2023-02-11T07:18:48.286Z,6.90
2023-02-11T07:21:20.020Z,6.90
2023-02-11T07:23:50.462Z,6.90
2023-02-11T07:26:23.035Z,6.90
2023-02-11T07:28:51.423Z,6.90
2023-02-11T07:31:26.330Z,7.00
2023-02-11T07:33:57.187Z,6.90
2023-02-11T07:36:24.932Z,7.00
2023-02-11T07:38:52.617Z,7.00
2023-02-11T07:41:23.179Z,7.00
2023-02-11T07:43:50.658Z,7.00
2023-02-11T07:46:23.741Z,7.00
2023-02-11T07:48:51.449Z,7.10
2023-02-11T07:51:21.875Z,7.10
2023-02-11T07:53:49.714Z,7.10
2023-02-11T07:56:19.280Z,7.20
2023-02-11T07:58:46.986Z,7.20
2023-02-11T08:01:25.386Z,7.20
2023-02-11T08:03:53.120Z,7.20
2023-02-11T08:06:23.614Z,7.20
2023-02-11T08:08:50.970Z,7.20
2023-02-11T08:11:28.611Z,7.30
2023-02-11T08:13:56.803Z,7.30
2023-02-11T08:16:28.921Z,7.30
2023-02-11T08:18:58.571Z,7.30
2023-02-11T08:21:26.083Z,7.40
2023-02-11T08:23:54.381Z,7.30
2023-02-11T08:26:28.866Z,7.40
2023-02-11T08:28:58.917Z,7.40
2023-02-11T08:31:30.020Z,7.40
2023-02-11T08:34:02.258Z,7.40
2023-02-11T08:36:36.684Z,7.50
2023-02-11T08:39:20.102Z,7.40
2023-02-11T08:41:54.055Z,7.50
2023-02-11T08:44:22.545Z,7.50
2023-02-11T08:46:50.828Z,7.50
2023-02-11T08:49:18.755Z,7.60
2023-02-11T08:51:46.641Z,7.60
2023-02-11T08:54:14.363Z,7.60
2023-02-11T08:56:41.773Z,7.70
2023-02-11T08:59:12.899Z,7.70
2023-02-11T09:01:40.051Z,7.70
2023-02-11T09:04:07.446Z,7.70
2023-02-11T09:06:34.567Z,7.80
2023-02-11T09:09:01.903Z,7.80
2023-02-11T09:11:33.602Z,7.80
2023-02-11T09:14:02.021Z,7.90
2023-02-11T09:16:33.495Z,7.90
2023-02-11T09:19:02.865Z,8.00
2023-02-11T09:21:30.485Z,8.10
2023-02-11T09:23:58.096Z,8.10
2023-02-11T09:26:36.054Z,8.20
2023-02-11T09:29:04.853Z,8.30
2023-02-11T09:31:34.135Z,8.30
2023-02-11T09:34:05.084Z,8.40
2023-02-11T09:36:37.435Z,8.50
2023-02-11T09:39:07.785Z,8.50
2023-02-11T09:41:58.461Z,8.60
2023-02-11T09:44:30.038Z,8.60
2023-02-11T09:47:04.422Z,8.60
2023-02-11T09:49:47.678Z,8.70
2023-02-11T09:52:36.808Z,8.70
2023-02-11T09:55:36.438Z,8.70
2023-02-11T09:58:38.712Z,8.80
2023-02-11T10:01:33.170Z,8.90
2023-02-11T10:04:25.556Z,8.90
2023-02-11T10:07:03.357Z,8.90
2023-02-11T10:10:01.789Z,8.90
2023-02-11T10:13:00.645Z,8.90
2023-02-11T10:15:49.595Z,9.00
2023-02-11T10:18:46.014Z,9.00
2023-02-11T10:21:33.190Z,9.00
2023-02-11T10:24:06.230Z,9.10
2023-02-11T10:26:36.781Z,9.20
2023-02-11T10:29:23.935Z,9.30
2023-02-11T10:31:51.696Z,9.40
2023-02-11T10:34:18.984Z,9.60
2023-02-11T10:36:48.030Z,9.70
2023-02-11T10:39:18.229Z,9.70
2023-02-11T10:41:54.023Z,9.70
2023-02-11T10:45:01.064Z,9.70
2023-02-11T10:47:37.490Z,9.70
2023-02-11T10:50:33.452Z,9.70
2023-02-11T10:53:21.224Z,9.70
2023-02-11T10:55:53.655Z,9.80
2023-02-11T10:58:32.003Z,9.80
2023-02-11T11:01:00.622Z,9.90
2023-02-11T11:03:34.458Z,10.00
2023-02-11T11:06:04.471Z,10.00
2023-02-11T11:08:58.105Z,10.10
2023-02-11T11:11:27.020Z,10.20
2023-02-11T11:13:54.001Z,10.20
2023-02-11T11:16:35.704Z,10.30
2023-02-11T11:19:24.937Z,10.30
2023-02-11T11:21:56.504Z,10.20
2023-02-11T11:24:31.267Z,10.20
2023-02-11T11:27:01.497Z,10.10
2023-02-11T11:30:05.313Z,10.10
2023-02-11T11:32:33.855Z,10.10
2023-02-11T11:35:05.963Z,10.00
2023-02-11T11:37:37.144Z,10.00
2023-02-11T11:40:16.512Z,10.00
2023-02-11T11:42:43.889Z,10.10
2023-02-11T11:45:19.745Z,10.00
2023-02-11T11:48:03.465Z,10.00
2023-02-11T11:50:52.811Z,10.00
2023-02-11T11:53:45.823Z,10.00
2023-02-11T11:56:20.309Z,10.00
2023-02-11T11:58:49.111Z,10.00
2023-02-11T12:01:46.421Z,10.10
2023-02-11T12:04:58.408Z,10.10
2023-02-11T12:07:58.241Z,10.00
2023-02-11T12:11:26.524Z,10.00
2023-02-11T12:14:05.745Z,10.00
2023-02-11T12:17:00.015Z,10.00
2023-02-11T12:19:54.871Z,10.00
2023-02-11T12:23:05.278Z,10.00
2023-02-11T12:26:02.234Z,10.00
2023-02-11T12:28:40.586Z,10.10
2023-02-11T12:31:20.116Z,10.10
2023-02-11T12:34:09.949Z,10.10
2023-02-11T12:37:28.257Z,10.10
2023-02-11T12:40:44.220Z,10.10
2023-02-11T12:43:39.157Z,10.10
2023-02-11T12:46:35.136Z,10.20
2023-02-11T12:49:23.089Z,10.20
2023-02-11T12:52:01.088Z,10.20
2023-02-11T12:54:36.070Z,10.20
2023-02-11T12:57:25.983Z,10.10
2023-02-11T13:00:25.857Z,10.10
2023-02-11T13:03:40.806Z,10.10
2023-02-11T13:06:18.414Z,10.10
2023-02-11T13:09:01.902Z,10.10
2023-02-11T13:11:39.978Z,10.10
2023-02-11T13:14:19.075Z,10.00
2023-02-11T13:16:50.262Z,10.00
2023-02-11T13:19:39.300Z,10.10
2023-02-11T13:22:14.476Z,10.10
2023-02-11T13:24:46.727Z,10.10
2023-02-11T13:28:03.245Z,10.20
2023-02-11T13:30:35.270Z,10.30
2023-02-11T13:33:07.012Z,10.40
2023-02-11T13:35:40.422Z,10.50
2023-02-11T13:38:25.959Z,10.60
2023-02-11T13:41:37.324Z,10.60
2023-02-11T13:44:09.641Z,10.70
2023-02-11T13:47:05.091Z,10.70
2023-02-11T13:49:40.777Z,10.70
2023-02-11T13:52:38.926Z,10.70
2023-02-11T13:55:29.856Z,10.80
2023-02-11T13:58:09.025Z,10.80
2023-02-11T14:00:36.462Z,10.90
2023-02-11T14:03:31.187Z,10.90
2023-02-11T14:06:46.538Z,10.80
2023-02-11T14:09:13.577Z,10.80
2023-02-11T14:11:43.331Z,10.80
2023-02-11T14:14:24.495Z,10.70
2023-02-11T14:17:03.436Z,10.70
2023-02-11T14:19:44.294Z,10.70
2023-02-11T14:22:26.015Z,10.80
2023-02-11T14:24:55.698Z,10.70
2023-02-11T14:27:54.659Z,10.80
2023-02-11T14:30:59.619Z,10.80
2023-02-11T14:33:48.310Z,10.80
2023-02-11T14:37:02.487Z,10.80
2023-02-11T14:39:52.843Z,10.80
2023-02-11T14:42:25.380Z,10.80
2023-02-11T14:44:56.739Z,10.80
2023-02-11T14:47:57.302Z,10.80
2023-02-11T14:50:37.634Z,10.70
2023-02-11T14:53:06.323Z,10.70
2023-02-11T14:55:41.255Z,10.60
2023-02-11T14:58:24.963Z,10.60
2023-02-11T15:00:54.190Z,10.60
2023-02-11T15:03:42.983Z,10.50
2023-02-11T15:06:27.054Z,10.40
2023-02-11T15:09:14.939Z,10.30
2023-02-11T15:11:47.951Z,10.30
2023-02-11T15:14:32.588Z,10.20
2023-02-11T15:17:06.567Z,10.20
2023-02-11T15:19:39.335Z,10.10
2023-02-11T15:22:20.102Z,10.10
2023-02-11T15:25:08.440Z,10.00
2023-02-11T15:27:42.379Z,10.00
2023-02-11T15:30:21.762Z,9.90
2023-02-11T15:33:00.665Z,9.90
2023-02-11T15:35:40.970Z,9.90
2023-02-11T15:38:11.299Z,9.80
2023-02-11T15:40:38.555Z,9.80
2023-02-11T15:43:09.908Z,9.80
2023-02-11T15:45:53.691Z,9.70
2023-02-11T15:48:31.627Z,9.70
2023-02-11T15:51:07.952Z,9.70
2023-02-11T15:53:43.183Z,9.70
2023-02-11T15:56:24.620Z,9.60
2023-02-11T15:58:55.020Z,9.60
2023-02-11T16:01:37.191Z,9.50
2023-02-11T16:04:05.786Z,9.50
2023-02-11T16:06:41.954Z,9.50
2023-02-11T16:09:10.087Z,9.40
2023-02-11T16:11:56.192Z,9.40
2023-02-11T16:14:42.229Z,9.40
2023-02-11T16:17:20.984Z,9.40
2023-02-11T16:19:50.940Z,9.40
2023-02-11T16:22:23.677Z,9.30
2023-02-11T16:24:54.257Z,9.30
2023-02-11T16:27:30.497Z,9.30
2023-02-11T16:29:58.825Z,9.30
2023-02-11T16:32:28.962Z,9.20
2023-02-11T16:35:00.940Z,9.20
2023-02-11T16:37:28.220Z,9.20
2023-02-11T16:39:58.807Z,9.20
2023-02-11T16:42:25.905Z,9.20
2023-02-11T16:44:52.975Z,9.10
2023-02-11T16:47:24.933Z,9.10
2023-02-11T16:49:52.193Z,9.10
2023-02-11T16:52:22.308Z,9.10
2023-02-11T16:54:50.805Z,9.00
2023-02-11T16:57:28.185Z,9.00
2023-02-11T16:59:58.168Z,9.00
2023-02-11T17:02:33.531Z,9.00
2023-02-11T17:05:16.974Z,8.90
2023-02-11T17:07:44.290Z,8.90
2023-02-11T17:10:21.776Z,8.90
2023-02-11T17:12:51.000Z,8.80
2023-02-11T17:15:18.311Z,8.80
2023-02-11T17:17:48.088Z,8.80
2023-02-11T17:20:16.075Z,8.70
2023-02-11T17:22:43.434Z,8.70
2023-02-11T17:25:10.859Z,8.70
2023-02-11T17:27:37.893Z,8.70
2023-02-11T17:30:06.384Z,8.70
2023-02-11T17:32:33.743Z,8.60
2023-02-11T17:35:00.799Z,8.60
2023-02-11T17:37:29.002Z,8.60
2023-02-11T17:39:56.103Z,8.60
2023-02-11T17:42:23.307Z,8.50
2023-02-11T17:44:50.528Z,8.50
2023-02-11T17:47:17.623Z,8.50
2023-02-11T17:49:44.794Z,8.50
2023-02-11T17:52:12.000Z,8.40
2023-02-11T17:54:39.304Z,8.40
2023-02-11T17:57:06.479Z,8.40
2023-02-11T17:59:35.544Z,8.30
2023-02-11T18:02:04.444Z,8.30
2023-02-11T18:04:32.631Z,8.30
2023-02-11T18:06:59.970Z,8.30
2023-02-11T18:09:27.341Z,8.30
2023-02-11T18:11:54.777Z,8.20
2023-02-11T18:14:22.650Z,8.20
2023-02-11T18:16:52.318Z,8.20
2023-02-11T18:19:20.149Z,8.20
2023-02-11T18:21:50.195Z,8.20
2023-02-11T18:24:18.381Z,8.20
2023-02-11T18:26:45.438Z,8.10
2023-02-11T18:29:12.590Z,8.10
2023-02-11T18:31:40.022Z,8.10
2023-02-11T18:34:08.501Z,8.10
2023-02-11T18:36:36.353Z,8.00
2023-02-11T18:39:05.700Z,8.00
2023-02-11T18:41:33.417Z,8.00
2023-02-11T18:44:03.045Z,8.00
2023-02-11T18:46:31.289Z,7.90
2023-02-11T18:48:58.448Z,7.90
2023-02-11T18:51:26.324Z,7.90
2023-02-11T18:53:54.594Z,7.90
2023-02-11T18:56:24.608Z,7.90
2023-02-11T18:58:52.081Z,7.90
2023-02-11T19:01:30.192Z,7.90
2023-02-11T19:03:59.675Z,7.90
2023-02-11T19:06:29.093Z,7.90
2023-02-11T19:09:00.300Z,7.80
2023-02-11T19:11:49.664Z,7.80
2023-02-11T19:14:22.333Z,7.80
2023-02-11T19:16:54.032Z,7.80
2023-02-11T19:19:23.280Z,7.70
2023-02-11T19:21:50.959Z,7.70
2023-02-11T19:24:19.859Z,7.70
2023-02-11T19:26:49.707Z,7.70
2023-02-11T19:29:18.899Z,7.70
2023-02-11T19:31:48.907Z,7.60
2023-02-11T19:34:20.696Z,7.60
2023-02-11T19:36:51.048Z,7.50
2023-02-11T19:39:18.618Z,7.50
2023-02-11T19:41:50.549Z,7.40
2023-02-11T19:44:18.424Z,7.30
2023-02-11T19:46:47.431Z,7.30
2023-02-11T19:49:17.700Z,7.20
2023-02-11T19:51:44.953Z,7.10
2023-02-11T19:54:12.176Z,7.00
2023-02-11T19:56:39.459Z,6.90
2023-02-11T19:59:09.062Z,6.90
2023-02-11T20:01:37.136Z,6.80
2023-02-11T20:04:04.876Z,6.70
2023-02-11T20:06:33.302Z,6.60
2023-02-11T20:09:05.533Z,6.60
2023-02-11T20:11:34.614Z,6.50
2023-02-11T20:14:02.077Z,6.40
2023-02-11T20:16:46.924Z,6.40
2023-02-11T20:19:22.016Z,6.30
2023-02-11T20:21:53.450Z,6.30
2023-02-11T20:24:21.365Z,6.20
2023-02-11T20:26:49.435Z,6.20
2023-02-11T20:29:18.023Z,6.10
2023-02-11T20:31:45.699Z,6.10
2023-02-11T20:34:17.618Z,6.10
2023-02-11T20:36:51.652Z,6.00
2023-02-11T20:39:21.849Z,6.00
2023-02-11T20:41:50.374Z,5.90
2023-02-11T20:44:17.880Z,5.90
2023-02-11T20:46:46.605Z,5.90
2023-02-11T20:49:18.863Z,5.80
2023-02-11T20:51:47.423Z,5.80
2023-02-11T20:54:17.954Z,5.70
2023-02-11T20:56:48.118Z,5.70
2023-02-11T20:59:16.869Z,5.70
2023-02-11T21:01:48.321Z,5.60
2023-02-11T21:04:27.092Z,5.60
2023-02-11T21:06:57.989Z,5.50
2023-02-11T21:09:31.109Z,5.50
2023-02-11T21:11:58.938Z,5.50
2023-02-11T21:14:27.082Z,5.60
2023-02-11T21:16:54.735Z,5.60
2023-02-11T21:19:22.101Z,5.60
2023-02-11T21:21:49.633Z,5.60
2023-02-11T21:24:16.976Z,5.60
2023-02-11T21:26:44.319Z,5.70
2023-02-11T21:29:12.055Z,5.80
2023-02-11T21:31:39.379Z,5.80
2023-02-11T21:34:07.651Z,5.90
2023-02-11T21:36:35.082Z,6.00
2023-02-11T21:39:03.882Z,6.00
2023-02-11T21:41:31.334Z,6.10
2023-02-11T21:43:58.771Z,6.10
2023-02-11T21:46:26.751Z,6.20
2023-02-11T21:48:54.023Z,6.20
2023-02-11T21:51:24.961Z,6.30
2023-02-11T21:53:58.904Z,6.30
2023-02-11T21:56:28.166Z,6.30
2023-02-11T21:58:58.321Z,6.40
2023-02-11T22:01:29.798Z,6.40
2023-02-11T22:03:59.174Z,6.40
2023-02-11T22:06:32.939Z,6.40
2023-02-11T22:09:07.176Z,6.50
2023-02-11T22:11:34.971Z,6.50
2023-02-11T22:14:02.289Z,6.50
2023-02-11T22:16:30.531Z,6.50
2023-02-11T22:19:02.469Z,6.50
2023-02-11T22:21:30.322Z,6.50
2023-02-11T22:23:57.696Z,6.50
2023-02-11T22:26:27.027Z,6.60
2023-02-11T22:28:55.110Z,6.60
2023-02-11T22:31:31.127Z,6.60
2023-02-11T22:33:58.912Z,6.60
2023-02-11T22:36:32.902Z,6.60
2023-02-11T22:39:08.748Z,6.60
2023-02-11T22:41:38.343Z,6.60
2023-02-11T22:44:05.836Z,6.70
2023-02-11T22:46:32.846Z,6.70
2023-02-11T22:49:00.115Z,6.70
2023-02-11T22:51:29.805Z,6.70
2023-02-11T22:54:02.672Z,6.70
2023-02-11T22:56:32.729Z,6.70
2023-02-11T22:59:07.755Z,6.70
2023-02-11T23:01:35.262Z,6.60
2023-02-11T23:04:05.809Z,6.60
2023-02-11T23:06:33.263Z,6.60
2023-02-11T23:09:00.506Z,6.60
2023-02-11T23:11:30.411Z,6.50
2023-02-11T23:13:58.398Z,6.50
2023-02-11T23:16:31.247Z,6.50
2023-02-11T23:19:06.106Z,6.50
2023-02-11T23:21:37.052Z,6.50
2023-02-11T23:24:10.058Z,6.40
2023-02-11T23:26:39.860Z,6.40
2023-02-11T23:29:07.414Z,6.40
2023-02-11T23:31:39.743Z,6.40
2023-02-11T23:34:08.180Z,6.30
2023-02-11T23:36:35.828Z,6.30
2023-02-11T23:39:04.042Z,6.30
2023-02-11T23:41:32.439Z,6.30
2023-02-11T23:43:59.474Z,6.30
2023-02-11T23:46:27.829Z,6.20
2023-02-11T23:48:55.184Z,6.30
2023-02-11T23:51:23.541Z,6.20
2023-02-11T23:53:52.939Z,6.20
2023-02-11T23:56:24.060Z,6.20
2023-02-11T23:58:54.132Z,6.20
